地図

経路データ

SID SEASON NUMBER BASIN SUBBASIN NAME ISO_TIME NATURE LAT LON WMO_WIND WMO_PRES WMO_AGENCY TRACK_TYPE DIST2LAND LANDFALL IFLAG USA_AGENCY USA_ATCF_ID USA_LAT USA_LON USA_RECORD USA_STATUS USA_WIND USA_PRES USA_SSHS USA_R34_NE USA_R34_SE USA_R34_SW USA_R34_NW USA_R50_NE USA_R50_SE USA_R50_SW USA_R50_NW USA_R64_NE USA_R64_SE USA_R64_SW USA_R64_NW USA_POCI USA_ROCI USA_RMW USA_EYE TOKYO_LAT TOKYO_LON TOKYO_GRADE TOKYO_WIND TOKYO_PRES TOKYO_R50_DIR TOKYO_R50_LONG TOKYO_R50_SHORT TOKYO_R30_DIR TOKYO_R30_LONG TOKYO_R30_SHORT TOKYO_LAND CMA_LAT CMA_LON CMA_CAT CMA_WIND CMA_PRES HKO_LAT HKO_LON HKO_CAT HKO_WIND HKO_PRES NEWDELHI_LAT NEWDELHI_LON NEWDELHI_GRADE NEWDELHI_WIND NEWDELHI_PRES NEWDELHI_CI NEWDELHI_DP NEWDELHI_POCI REUNION_LAT REUNION_LON REUNION_TYPE REUNION_WIND REUNION_PRES REUNION_TNUM REUNION_CI REUNION_RMW REUNION_R34_NE REUNION_R34_SE REUNION_R34_SW REUNION_R34_NW REUNION_R50_NE REUNION_R50_SE REUNION_R50_SW REUNION_R50_NW REUNION_R64_NE REUNION_R64_SE REUNION_R64_SW REUNION_R64_NW BOM_LAT BOM_LON BOM_TYPE BOM_WIND BOM_PRES BOM_TNUM BOM_CI BOM_RMW BOM_R34_NE BOM_R34_SE BOM_R34_SW BOM_R34_NW BOM_R50_NE BOM_R50_SE BOM_R50_SW BOM_R50_NW BOM_R64_NE BOM_R64_SE BOM_R64_SW BOM_R64_NW BOM_ROCI BOM_POCI BOM_EYE BOM_POS_METHOD BOM_PRES_METHOD NADI_LAT NADI_LON NADI_CAT NADI_WIND NADI_PRES WELLINGTON_LAT WELLINGTON_LON WELLINGTON_WIND WELLINGTON_PRES DS824_LAT DS824_LON DS824_STAGE DS824_WIND DS824_PRES TD9636_LAT TD9636_LON TD9636_STAGE TD9636_WIND TD9636_PRES TD9635_LAT TD9635_LON TD9635_WIND TD9635_PRES TD9635_ROCI NEUMANN_LAT NEUMANN_LON NEUMANN_CLASS NEUMANN_WIND NEUMANN_PRES MLC_LAT MLC_LON MLC_CLASS MLC_WIND MLC_PRES USA_GUST BOM_GUST BOM_GUST_PER REUNION_GUST REUNION_GUST_PER USA_SEAHGT USA_SEARAD_NE USA_SEARAD_SE USA_SEARAD_SW USA_SEARAD_NW STORM_SPEED STORM_DIR
1872042S13104 1872 7 SI WA NOT_NAMED 1872-02-11 06:00:00 NR -13.1000 104.000 main 690 690 _____O________ -1 -13.1000 104.000 99 9.90000 4 250
1872042S13104 1872 7 SI WA NOT_NAMED 1872-02-11 09:00:00 NR -13.1678 103.811 main 709 709 _____P________ -1 -13.1678 103.811 99 4 250
1872042S13104 1872 7 SI WA NOT_NAMED 1872-02-11 12:00:00 NR -13.2362 103.621 main 718 718 _____P________ -1 -13.2362 103.621 99 4 250
1872042S13104 1872 7 SI WA NOT_NAMED 1872-02-11 15:00:00 NR -13.3060 103.428 main 737 737 _____P________ -1 -13.3060 103.428 99 4 249
1872042S13104 1872 7 SI WA NOT_NAMED 1872-02-11 18:00:00 NR -13.3778 103.233 main 757 757 _____P________ -1 -13.3778 103.233 99 4 249
1872042S13104 1872 7 SI WA NOT_NAMED 1872-02-11 21:00:00 NR -13.4523 103.033 main 777 777 _____P________ -1 -13.4523 103.033 99 4 249
1872042S13104 1872 7 SI WA NOT_NAMED 1872-02-12 00:00:00 NR -13.5304 102.829 main 788 788 _____P________ -1 -13.5304 102.829 99 4 248
1872042S13104 1872 7 SI WA NOT_NAMED 1872-02-12 03:00:00 NR -13.6127 102.618 main 809 809 _____P________ -1 -13.6127 102.618 99 5 248
1872042S13104 1872 7 SI WA NOT_NAMED 1872-02-12 06:00:00 NR -13.7000 102.400 main 830 830 _____O________ -1 -13.7000 102.400 99 9.90000 5 247
1872042S13104 1872 7 SI WA NOT_NAMED 1872-02-12 09:00:00 NR -13.7928 102.174 main 849 849 _____P________ -1 -13.7928 102.174 99 5 247
1872042S13104 1872 7 SI WA NOT_NAMED 1872-02-12 12:00:00 NR -13.8912 101.942 main 873 873 _____P________ -1 -13.8912 101.942 99 5 246
1872042S13104 1872 7 SI WA NOT_NAMED 1872-02-12 15:00:00 NR -13.9953 101.705 main 892 892 _____P________ -1 -13.9953 101.705 99 5 245
1872042S13104 1872 7 SI WA NOT_NAMED 1872-02-12 18:00:00 NR -14.1050 101.465 main 912 912 _____P________ -1 -14.1050 101.465 99 5 244
1872042S13104 1872 7 SI WA NOT_NAMED 1872-02-12 21:00:00 NR -14.2203 101.222 main 937 937 _____P________ -1 -14.2203 101.222 99 5 243
1872042S13104 1872 7 SI WA NOT_NAMED 1872-02-13 00:00:00 NR -14.3412 100.980 main 957 957 _____P________ -1 -14.3412 100.980 99 5 242
1872042S13104 1872 7 SI WA NOT_NAMED 1872-02-13 03:00:00 NR -14.4678 100.738 main 992 992 _____P________ -1 -14.4678 100.738 99 5 241
1872042S13104 1872 7 SI WA NOT_NAMED 1872-02-13 06:00:00 NR -14.6000 100.500 main 1013 1013 _____O________ -1 -14.6000 100.500 99 9.90000 5 240
1872042S13104 1872 7 SI WA NOT_NAMED 1872-02-13 09:00:00 NR -14.7281 100.280 main 1034 1034 _____P________ -1 -14.7281 100.280 99 5 238
1872042S13104 1872 7 SI WA NOT_NAMED 1872-02-13 12:00:00 NR -14.8616 100.062 main 1064 1064 _____P________ -1 -14.8616 100.062 99 5 237
1872042S13104 1872 7 SI WA NOT_NAMED 1872-02-13 15:00:00 NR -15.0009 99.8462 main 1091 1091 _____P________ -1 -15.0009 99.8462 99 5 236
1872042S13104 1872 7 SI WA NOT_NAMED 1872-02-13 18:00:00 NR -15.1466 99.6288 main 1112 1112 _____P________ -1 -15.1466 99.6288 99 5 235
1872042S13104 1872 7 SI WA NOT_NAMED 1872-02-13 21:00:00 NR -15.2989 99.4078 main 1143 1143 _____P________ -1 -15.2989 99.4078 99 5 234
1872042S13104 1872 7 SI WA NOT_NAMED 1872-02-14 00:00:00 NR -15.4584 99.1809 main 1173 1173 _____P________ -1 -15.4584 99.1809 99 6 234
1872042S13104 1872 7 SI WA NOT_NAMED 1872-02-14 03:00:00 NR -15.6252 98.9457 main 1201 1201 _____P________ -1 -15.6252 98.9457 99 6 234
1872042S13104 1872 7 SI WA NOT_NAMED 1872-02-14 06:00:00 NR -15.8000 98.7000 main 1231 1231 _____O________ -1 -15.8000 98.7000 99 9.90000 6 234
1872042S13104 1872 7 SI WA NOT_NAMED 1872-02-14 09:00:00 NR -15.9913 98.4171 main 1268 1268 _____P________ -1 -15.9913 98.4171 99 7 235
1872042S13104 1872 7 SI WA NOT_NAMED 1872-02-14 12:00:00 NR -16.1922 98.1213 main 1306 1306 _____P________ -1 -16.1922 98.1213 99 7 235
1872042S13104 1872 7 SI WA NOT_NAMED 1872-02-14 15:00:00 NR -16.3991 97.8183 main 1343 1343 _____P________ -1 -16.3991 97.8183 99 7 234
1872042S13104 1872 7 SI WA NOT_NAMED 1872-02-14 18:00:00 NR -16.6085 97.5140 main 1380 1380 _____P________ -1 -16.6085 97.5140 99 7 234
1872042S13104 1872 7 SI WA NOT_NAMED 1872-02-14 21:00:00 NR -16.8168 97.2140 main 1418 1418 _____P________ -1 -16.8168 97.2140 99 7 234
1872042S13104 1872 7 SI WA NOT_NAMED 1872-02-15 00:00:00 NR -17.0204 96.9244 main 1455 1455 _____P________ -1 -17.0204 96.9244 99 7 233
1872042S13104 1872 7 SI WA NOT_NAMED 1872-02-15 03:00:00 NR -17.2160 96.6511 main 1486 1486 _____P________ -1 -17.2160 96.6511 99 6 233
1872042S13104 1872 7 SI WA NOT_NAMED 1872-02-15 06:00:00 NR -17.4000 96.4000 main 1523 1523 _____O________ -1 -17.4000 96.4000 99 9.90000 6 232
1872042S13104 1872 7 SI WA NOT_NAMED 1872-02-15 09:00:00 NR -17.5700 96.1756 main 1554 1554 _____P________ -1 -17.5700 96.1756 99 5 231
1872042S13104 1872 7 SI WA NOT_NAMED 1872-02-15 12:00:00 NR -17.7269 95.9759 main 1576 1576 _____P________ -1 -17.7269 95.9759 99 5 230
1872042S13104 1872 7 SI WA NOT_NAMED 1872-02-15 15:00:00 NR -17.8727 95.7975 main 1607 1607 _____P________ -1 -17.8727 95.7975 99 4 229
1872042S13104 1872 7 SI WA NOT_NAMED 1872-02-15 18:00:00 NR -18.0092 95.6368 main 1630 1630 _____P________ -1 -18.0092 95.6368 99 4 228
1872042S13104 1872 7 SI WA NOT_NAMED 1872-02-15 21:00:00 NR -18.1384 95.4902 main 1645 1645 _____P________ -1 -18.1384 95.4902 99 4 227
1872042S13104 1872 7 SI WA NOT_NAMED 1872-02-16 00:00:00 NR -18.2620 95.3543 main 1669 1669 _____P________ -1 -18.2620 95.3543 99 4 226
1872042S13104 1872 7 SI WA NOT_NAMED 1872-02-16 03:00:00 NR -18.3820 95.2255 main 1691 1691 _____P________ -1 -18.3820 95.2255 99 3 225
1872042S13104 1872 7 SI WA NOT_NAMED 1872-02-16 06:00:00 NR -18.5000 95.1000 main 1706 _____O________ -1 -18.5000 95.1000 99 9.90000 3 225

IBTrACS Databaseについて

本データベースは、米国NOAAが公開する1842年以降の世界の熱帯低気圧のベストトラックデータアーカイブInternational Best Track Archive for Climate Stewardship (IBTrACS)を、ウェブで閲覧しやすい形式に変換したものです。

最終更新日:2021-10-25